Tuesday, February 20, 2018, 10:41 AM EST
Back to Local

KAGC, Pittsburgh Allegheny Cty.

Location: West Mifflin, PA, United States Lat: 40.35
Local Time: 10:41 AM EST (15:41 GMT) Lon: -79.917
Time Zone: US/Eastern Elev: 1253 ft

Show me the last for .
Show Decoded

2018-02-20 09:53 METAR KAGC 201453Z 20012KT 10SM CLR 19/11 A3023 RMK AO2 SLP237 T01890106 51008 =
2018-02-20 08:53 METAR KAGC 201353Z 19010KT 10SM SCT090 17/10 A3023 RMK AO2 SLP238 T01670100 =
2018-02-20 07:53 METAR KAGC 201253Z 18009KT 10SM FEW047 OVC085 16/10 A3022 RMK AO2 SLP235
                 T01560100 =
2018-02-20 06:53 METAR KAGC 201153Z 19007KT 10SM CLR 15/09 A3020 RMK AO2 SLP230 70033 T01500094
                 10161 20150 51014 =
2018-02-20 05:53 METAR KAGC 201053Z 19008KT 10SM SCT065 15/09 A3020 RMK AO2 SLP228 T01500094 =
2018-02-20 04:53 METAR KAGC 200953Z 20009KT 10SM SCT060 15/10 A3018 RMK AO2 SLP221 T01500100 =
2018-02-20 03:53 METAR KAGC 200853Z 20009KT 10SM CLR 15/09 A3016 RMK AO2 SLP216 T01500094 53004 =
2018-02-20 02:53 METAR KAGC 200753Z 18009KT 10SM CLR 16/09 A3015 RMK AO2 SLP214 T01560094 =
2018-02-20 01:53 METAR KAGC 200653Z 19008KT 10SM CLR 16/09 A3016 RMK AO2 SLP215 T01560094 =
2018-02-20 00:53 METAR KAGC 200553Z 20011KT 10SM CLR 16/10 A3015 RMK AO2 SLP214 T01610100 10172
                 20161 50003 =
2018-02-19 23:53 METAR KAGC 200453Z 20010KT 10SM CLR 17/11 A3015 RMK AO2 SLP215 T01670106
                 401780000 =
2018-02-19 22:53 METAR KAGC 200353Z 20013KT 10SM CLR 17/11 A3014 RMK AO2 SLP212 T01670106 =
2018-02-19 21:53 METAR KAGC 200253Z 19010KT 10SM SCT075 17/11 A3014 RMK AO2 SLP212 T01670111
                 51004 =
2018-02-19 20:53 METAR KAGC 200153Z 18010KT 10SM CLR 17/11 A3014 RMK AO2 SLP211 T01670111 =
2018-02-19 19:53 METAR KAGC 200053Z 18008KT 10SM BKN065 17/11 A3014 RMK AO2 SLP212 T01720111 =
2018-02-19 18:53 METAR KAGC 192353Z 18006KT 10SM CLR 17/12 A3013 RMK AO2 SLP209 60001 T01720117
                 10178 20111 51004 =
2018-02-19 17:53 METAR KAGC 192253Z AUTO 15005KT 10SM BKN060 16/12 A3012 RMK AO2 SLP209 T01560122
                 =
2018-02-19 16:53 METAR KAGC 192153Z AUTO 00000KT 10SM OVC047 17/13 A3013 RMK AO2 SLP208 T01670128
                 =
2018-02-19 15:53 METAR KAGC 192053Z 17003KT 10SM FEW065 FEW120 16/13 A3012 RMK AO2 SLP206 60001
                 T01610128 55006 =
2018-02-19 14:53 METAR KAGC 191953Z 16007KT 10SM BKN095 14/12 A3011 RMK AO2 SLP204 T01440122 =
2018-02-19 13:53 METAR KAGC 191853Z 16006KT 10SM FEW028 SCT065 OVC090 13/11 A3012 RMK AO2
                 RAB28E49 SLP210 P0001 T01280111 =
2018-02-19 13:08 METAR KAGC 191808Z 16006KT 10SM FEW025 BKN044 OVC070 11/10 A3013 RMK AO2
                 T01110100 =
2018-02-19 12:53 METAR KAGC 191753Z 16007KT 10SM BKN027 OVC046 11/09 A3014 RMK AO2 RAB1657E25
                 SLP216 P0002 60032 T01110094 10111 20061 58007 =
2018-02-19 11:53 METAR KAGC 191653Z 17006KT 10SM BKN021 BKN026 OVC033 10/09 A3015 RMK AO2 RAE51
                 SLP223 P0024 T01000089 =
2018-02-19 11:46 METAR KAGC 191646Z 17007KT 8SM -RA BKN020 OVC031 10/09 A3015 RMK AO2 P0024
                 T01000089 =
2018-02-19 11:32 METAR KAGC 191632Z 19010KT 1 1/2SM R28/4500VP6000FT RA BR FEW017 BKN031 OVC047
                 10/08 A3016 RMK AO2 P0022 T01000083 =
2018-02-19 11:17 METAR KAGC 191617Z 19011KT 1 1/2SM R28/4500VP6000FT RA BR BKN020 BKN029 OVC036
                 10/08 A3016 RMK AO2 P0013 T01000078 =
2018-02-19 10:53 METAR KAGC 191553Z 18011KT 7SM -RA OVC020 09/08 A3014 RMK AO2 RAB1458 SLP220
                 P0003 T00940078 =

Support USWX by starting your Amazon purchase here.